createdAt,value
2019-03-12T00:00:19.988Z,978.75
2019-03-12T00:01:19.997Z,978.73
2019-03-12T00:02:19.969Z,978.71
2019-03-12T00:03:19.962Z,978.71
2019-03-12T00:04:19.962Z,978.76
2019-03-12T00:05:20.007Z,978.75
2019-03-12T00:06:19.936Z,978.75
2019-03-12T00:07:19.972Z,978.72
2019-03-12T00:08:19.993Z,978.83
2019-03-12T00:09:19.904Z,978.85
2019-03-12T00:10:19.880Z,978.82
2019-03-12T00:11:19.879Z,978.84
2019-03-12T00:12:19.873Z,978.92
2019-03-12T00:13:19.856Z,978.91
2019-03-12T00:14:19.974Z,978.84
2019-03-12T00:15:19.831Z,978.88
2019-03-12T00:16:19.821Z,978.87
2019-03-12T00:17:19.926Z,978.90
2019-03-12T00:18:19.800Z,978.97
2019-03-12T00:19:19.803Z,978.99
2019-03-12T00:20:19.776Z,978.91
2019-03-12T00:21:19.761Z,978.86
2019-03-12T00:22:19.760Z,978.93
2019-03-12T00:23:19.756Z,978.92
2019-03-12T00:24:19.738Z,978.86
2019-03-12T00:25:19.718Z,978.86
2019-03-12T00:26:19.709Z,978.97
2019-03-12T00:27:19.696Z,978.97
2019-03-12T00:28:19.693Z,978.99
2019-03-12T00:29:19.688Z,979.01
2019-03-12T00:30:19.675Z,979.04
2019-03-12T00:31:19.672Z,979.00
2019-03-12T00:32:19.648Z,979.06
2019-03-12T00:33:19.659Z,979.05
2019-03-12T00:34:19.650Z,979.04
2019-03-12T00:35:19.624Z,979.04
2019-03-12T00:36:19.639Z,979.06
2019-03-12T00:37:19.616Z,979.11
2019-03-12T00:38:19.579Z,979.08
2019-03-12T00:39:19.584Z,979.15
2019-03-12T00:40:19.562Z,979.21
2019-03-12T00:41:20.257Z,979.14
2019-03-12T00:42:19.539Z,979.26
2019-03-12T00:43:19.535Z,979.30
2019-03-12T00:44:19.540Z,979.30
2019-03-12T00:45:19.504Z,979.31
2019-03-12T00:46:19.495Z,979.33
2019-03-12T00:47:19.490Z,979.37
2019-03-12T00:48:19.494Z,979.42
2019-03-12T00:49:19.488Z,979.46
2019-03-12T00:50:19.452Z,979.46
2019-03-12T00:51:19.437Z,979.51
2019-03-12T00:52:19.491Z,979.49
2019-03-12T00:53:19.418Z,979.54
2019-03-12T00:54:19.418Z,979.56
2019-03-12T00:55:19.420Z,979.71
2019-03-12T00:56:19.392Z,979.67
2019-03-12T00:57:19.378Z,979.71
2019-03-12T00:58:19.393Z,979.64
2019-03-12T00:59:19.375Z,979.65
2019-03-12T01:00:19.342Z,979.67
2019-03-12T01:01:19.332Z,979.69
2019-03-12T01:02:19.330Z,979.63
2019-03-12T01:03:19.313Z,979.67
2019-03-12T01:04:19.307Z,979.71
2019-03-12T01:05:19.391Z,979.67
2019-03-12T01:06:19.274Z,979.74
2019-03-12T01:07:19.264Z,979.73
2019-03-12T01:08:19.255Z,979.77
2019-03-12T01:09:19.262Z,979.80
2019-03-12T01:10:19.233Z,979.79
2019-03-12T01:11:19.242Z,979.82
2019-03-12T01:12:19.221Z,979.80
2019-03-12T01:13:19.204Z,979.83
2019-03-12T01:14:19.207Z,979.85
2019-03-12T01:15:19.185Z,979.86
2019-03-12T01:16:19.172Z,979.80
2019-03-12T01:17:19.226Z,979.80
2019-03-12T01:18:19.146Z,979.89
2019-03-12T01:19:19.144Z,979.91
2019-03-12T01:20:19.213Z,979.89
2019-03-12T01:21:19.120Z,979.93
2019-03-12T01:22:19.111Z,979.94
2019-03-12T01:23:19.109Z,979.97
2019-03-12T01:24:19.118Z,979.93
2019-03-12T01:25:19.071Z,980.00
2019-03-12T01:26:19.062Z,980.08
2019-03-12T01:27:19.160Z,979.98
2019-03-12T01:28:19.038Z,980.09
2019-03-12T01:29:19.035Z,980.07
2019-03-12T01:30:19.032Z,980.04
2019-03-12T01:31:19.010Z,980.09
2019-03-12T01:32:18.992Z,980.08
2019-03-12T01:33:18.983Z,980.13
2019-03-12T01:34:19.007Z,980.18
2019-03-12T01:35:18.960Z,980.11
2019-03-12T01:36:18.954Z,980.17
2019-03-12T01:37:18.943Z,980.14
2019-03-12T01:38:18.947Z,980.22
2019-03-12T01:39:18.927Z,980.24
2019-03-12T01:40:18.945Z,980.20
2019-03-12T01:41:18.901Z,980.22
2019-03-12T01:42:18.939Z,980.26
2019-03-12T01:43:18.877Z,980.19
2019-03-12T01:44:18.873Z,980.23
2019-03-12T01:45:18.855Z,980.21
2019-03-12T01:46:18.845Z,980.31
2019-03-12T01:47:18.858Z,980.26
2019-03-12T01:48:18.829Z,980.26
2019-03-12T01:49:18.913Z,980.37
2019-03-12T01:50:18.800Z,980.36
2019-03-12T01:51:18.799Z,980.43
2019-03-12T01:52:18.784Z,980.40
2019-03-12T01:53:18.775Z,980.37
2019-03-12T01:54:18.756Z,980.47
2019-03-12T01:55:18.754Z,980.48
2019-03-12T01:56:18.735Z,980.49
2019-03-12T01:57:18.733Z,980.53
2019-03-12T01:58:18.714Z,980.53
2019-03-12T01:59:18.706Z,980.52
2019-03-12T02:00:18.695Z,980.58
2019-03-12T02:01:18.682Z,980.60
2019-03-12T02:02:18.668Z,980.56
2019-03-12T02:03:18.662Z,980.58
2019-03-12T02:04:18.650Z,980.64
2019-03-12T02:05:18.660Z,980.62
2019-03-12T02:06:18.701Z,980.67
2019-03-12T02:07:18.658Z,980.64
2019-03-12T02:08:18.685Z,980.62
2019-03-12T02:09:18.610Z,980.72
2019-03-12T02:10:18.595Z,980.73
2019-03-12T02:11:18.610Z,980.66
2019-03-12T02:12:18.562Z,980.71
2019-03-12T02:13:18.560Z,980.70
2019-03-12T02:14:18.541Z,980.81
2019-03-12T02:15:18.552Z,980.76
2019-03-12T02:16:18.517Z,980.79
2019-03-12T02:17:18.510Z,980.77
2019-03-12T02:18:18.557Z,980.75
2019-03-12T02:19:18.497Z,980.81
2019-03-12T02:20:18.487Z,980.90
2019-03-12T02:21:18.492Z,980.85
2019-03-12T02:22:18.477Z,980.90
2019-03-12T02:23:18.450Z,980.85
2019-03-12T02:24:18.449Z,980.92
2019-03-12T02:25:18.428Z,980.97
2019-03-12T02:26:18.411Z,980.97
2019-03-12T02:27:18.401Z,980.96
2019-03-12T02:28:18.387Z,980.95
2019-03-12T02:29:18.381Z,981.03
2019-03-12T02:30:18.381Z,981.06
2019-03-12T02:31:18.387Z,981.02
2019-03-12T02:32:18.344Z,981.03
2019-03-12T02:33:18.344Z,981.04
2019-03-12T02:34:18.324Z,981.16
2019-03-12T02:35:18.316Z,981.06
2019-03-12T02:36:18.317Z,981.07
2019-03-12T02:37:18.297Z,981.13
2019-03-12T02:38:18.292Z,981.15
2019-03-12T02:39:18.271Z,981.15
2019-03-12T02:40:18.268Z,981.12
2019-03-12T02:41:18.249Z,981.15
2019-03-12T02:42:18.245Z,981.18
2019-03-12T02:43:18.232Z,981.14
2019-03-12T02:44:18.215Z,981.17
2019-03-12T02:45:18.324Z,981.13
2019-03-12T02:46:18.211Z,981.12
2019-03-12T02:47:18.187Z,981.19
2019-03-12T02:48:18.170Z,981.16
2019-03-12T02:49:18.182Z,981.20
2019-03-12T02:50:18.163Z,981.27
2019-03-12T02:51:18.141Z,981.17
2019-03-12T02:52:18.216Z,981.28
2019-03-12T02:53:18.121Z,981.21
2019-03-12T02:54:18.120Z,981.34
2019-03-12T02:55:18.136Z,981.30
2019-03-12T02:56:18.115Z,981.32
2019-03-12T02:57:18.075Z,981.31
2019-03-12T02:58:18.066Z,981.37
2019-03-12T02:59:18.090Z,981.33
2019-03-12T03:00:18.050Z,981.39
2019-03-12T03:01:18.033Z,981.39
2019-03-12T03:02:18.024Z,981.39
2019-03-12T03:03:18.029Z,981.39
2019-03-12T03:04:18.013Z,981.37
2019-03-12T03:05:18.001Z,981.38
2019-03-12T03:06:17.985Z,981.44
2019-03-12T03:07:17.995Z,981.45
2019-03-12T03:08:17.962Z,981.47
2019-03-12T03:09:17.950Z,981.39
2019-03-12T03:10:17.944Z,981.46
2019-03-12T03:11:17.931Z,981.45
2019-03-12T03:12:17.963Z,981.52
2019-03-12T03:13:17.914Z,981.50
2019-03-12T03:14:18.007Z,981.56
2019-03-12T03:15:17.882Z,981.64
2019-03-12T03:16:17.882Z,981.62
2019-03-12T03:17:17.863Z,981.60
2019-03-12T03:18:17.850Z,981.65
2019-03-12T03:19:17.839Z,981.66
2019-03-12T03:20:17.848Z,981.65
2019-03-12T03:21:17.822Z,981.69
2019-03-12T03:22:17.812Z,981.69
2019-03-12T03:23:17.800Z,981.73
2019-03-12T03:24:17.791Z,981.68
2019-03-12T03:25:17.769Z,981.67
2019-03-12T03:26:17.772Z,981.67
2019-03-12T03:27:17.755Z,981.72
2019-03-12T03:28:17.752Z,981.68
2019-03-12T03:29:17.733Z,981.69
2019-03-12T03:30:17.725Z,981.74
2019-03-12T03:31:17.746Z,981.71
2019-03-12T03:32:17.699Z,981.77
2019-03-12T03:33:17.737Z,981.75
2019-03-12T03:34:17.734Z,981.81
2019-03-12T03:35:17.710Z,981.75
2019-03-12T03:36:17.671Z,981.81
2019-03-12T03:37:17.658Z,981.79
2019-03-12T03:38:17.689Z,981.76
2019-03-12T03:39:17.641Z,981.76
2019-03-12T03:40:17.608Z,981.81
2019-03-12T03:41:17.622Z,981.74
2019-03-12T03:42:17.596Z,981.79
2019-03-12T03:43:17.604Z,981.80
2019-03-12T03:44:17.574Z,981.84
2019-03-12T03:45:17.582Z,981.78
2019-03-12T03:46:17.559Z,981.84
2019-03-12T03:47:19.955Z,981.79
2019-03-12T03:48:17.521Z,981.79
2019-03-12T03:49:17.516Z,981.82
2019-03-12T03:50:17.607Z,981.86
2019-03-12T03:51:17.502Z,981.87
2019-03-12T03:52:17.486Z,981.90
2019-03-12T03:53:17.479Z,981.92
2019-03-12T03:54:17.461Z,981.92
2019-03-12T03:55:17.447Z,981.88
2019-03-12T03:56:17.446Z,981.94
2019-03-12T03:57:17.523Z,981.91
2019-03-12T03:58:17.416Z,981.91
2019-03-12T03:59:17.403Z,981.93
2019-03-12T04:00:17.428Z,981.90
2019-03-12T04:01:17.401Z,981.92
2019-03-12T04:02:17.371Z,981.93
2019-03-12T04:03:17.369Z,981.92
2019-03-12T04:04:17.406Z,981.96
2019-03-12T04:05:17.340Z,981.96
2019-03-12T04:06:17.360Z,982.01
2019-03-12T04:07:17.328Z,982.01
2019-03-12T04:08:17.304Z,982.08
2019-03-12T04:09:17.305Z,982.03
2019-03-12T04:10:17.357Z,982.15
2019-03-12T04:11:17.359Z,982.10
2019-03-12T04:12:17.261Z,982.16
2019-03-12T04:13:17.254Z,982.17
2019-03-12T04:14:17.244Z,982.17
2019-03-12T04:15:17.235Z,982.18
2019-03-12T04:16:17.282Z,982.19
2019-03-12T04:17:17.216Z,982.17
2019-03-12T04:18:17.274Z,982.18
2019-03-12T04:19:17.239Z,982.20
2019-03-12T04:20:17.188Z,982.19
2019-03-12T04:21:17.227Z,982.18
2019-03-12T04:22:17.158Z,982.17
2019-03-12T04:23:17.147Z,982.18
2019-03-12T04:24:17.140Z,982.17
2019-03-12T04:25:17.132Z,982.14
2019-03-12T04:26:17.114Z,982.15
2019-03-12T04:27:17.105Z,982.19
2019-03-12T04:28:17.107Z,982.15
2019-03-12T04:29:17.088Z,982.13
2019-03-12T04:30:17.087Z,982.14
2019-03-12T04:31:17.090Z,982.10
2019-03-12T04:32:17.051Z,982.07
2019-03-12T04:33:17.051Z,982.08
2019-03-12T04:34:17.031Z,982.07
2019-03-12T04:35:17.025Z,982.08
2019-03-12T04:36:17.010Z,982.05
2019-03-12T04:37:17.000Z,982.10
2019-03-12T04:38:17.003Z,982.15
2019-03-12T04:39:16.972Z,982.15
2019-03-12T04:40:16.973Z,982.10
2019-03-12T04:41:16.957Z,982.17
2019-03-12T04:42:16.956Z,982.07
2019-03-12T04:43:16.937Z,982.11
2019-03-12T04:44:16.948Z,982.10
2019-03-12T04:45:16.931Z,982.07
2019-03-12T04:46:16.911Z,982.12
2019-03-12T04:47:16.918Z,982.05
2019-03-12T04:48:16.875Z,982.05
2019-03-12T04:49:16.861Z,982.14
2019-03-12T04:50:16.873Z,982.16
2019-03-12T04:51:16.848Z,982.14
2019-03-12T04:52:16.838Z,982.17
2019-03-12T04:53:16.845Z,982.21
2019-03-12T04:54:16.847Z,982.18
2019-03-12T04:55:16.858Z,982.16
2019-03-12T04:56:16.791Z,982.18
2019-03-12T04:57:16.796Z,982.22
2019-03-12T04:58:16.778Z,982.22
2019-03-12T04:59:16.751Z,982.25
2019-03-12T05:00:16.759Z,982.22
2019-03-12T05:01:16.824Z,982.24
2019-03-12T05:02:16.740Z,982.31
2019-03-12T05:03:16.726Z,982.26
2019-03-12T05:04:16.715Z,982.27
2019-03-12T05:05:16.690Z,982.31
2019-03-12T05:06:19.591Z,982.28
2019-03-12T05:07:16.672Z,982.27
2019-03-12T05:08:16.659Z,982.29
2019-03-12T05:09:16.646Z,982.30
2019-03-12T05:10:16.642Z,982.27
2019-03-12T05:11:16.638Z,982.27
2019-03-12T05:12:16.645Z,982.24
2019-03-12T05:13:16.612Z,982.24
2019-03-12T05:14:16.599Z,982.27
2019-03-12T05:15:16.591Z,982.23
2019-03-12T05:16:17.265Z,982.21
2019-03-12T05:17:16.561Z,982.28
2019-03-12T05:18:16.565Z,982.26
2019-03-12T05:19:16.542Z,982.24
2019-03-12T05:20:16.526Z,982.29
2019-03-12T05:21:16.539Z,982.27
2019-03-12T05:22:16.502Z,982.35
2019-03-12T05:23:16.696Z,982.32
2019-03-12T05:24:16.484Z,982.34
2019-03-12T05:25:16.489Z,982.36
2019-03-12T05:26:16.467Z,982.36
2019-03-12T05:27:16.475Z,982.38
2019-03-12T05:28:16.443Z,982.43
2019-03-12T05:29:16.430Z,982.39
2019-03-12T05:30:16.445Z,982.46
2019-03-12T05:31:16.408Z,982.46
2019-03-12T05:32:16.397Z,982.47
2019-03-12T05:33:16.415Z,982.48
2019-03-12T05:34:16.376Z,982.50
2019-03-12T05:35:16.371Z,982.52
2019-03-12T05:36:16.365Z,982.50
2019-03-12T05:37:16.437Z,982.51
2019-03-12T05:38:16.337Z,982.50
2019-03-12T05:39:16.325Z,982.55
2019-03-12T05:40:16.321Z,982.51
2019-03-12T05:41:16.300Z,982.56
2019-03-12T05:42:16.302Z,982.55
2019-03-12T05:43:16.281Z,982.59
2019-03-12T05:44:16.402Z,982.57
2019-03-12T05:45:16.284Z,982.60
2019-03-12T05:46:16.268Z,982.60
2019-03-12T05:47:16.246Z,982.64
2019-03-12T05:48:16.261Z,982.62
2019-03-12T05:49:16.230Z,982.60
2019-03-12T05:50:16.220Z,982.67
2019-03-12T05:51:16.199Z,982.66
2019-03-12T05:52:16.262Z,982.56
2019-03-12T05:53:16.191Z,982.60
2019-03-12T05:54:16.176Z,982.64
2019-03-12T05:55:16.169Z,982.67
2019-03-12T05:56:16.141Z,982.66
2019-03-12T05:57:16.130Z,982.67
2019-03-12T05:58:16.130Z,982.65
2019-03-12T05:59:16.110Z,982.67
2019-03-12T06:00:16.102Z,982.70
2019-03-12T06:01:16.091Z,982.70
2019-03-12T06:02:16.072Z,982.72
2019-03-12T06:03:16.083Z,982.65
2019-03-12T06:04:16.073Z,982.67
2019-03-12T06:05:16.042Z,982.72
2019-03-12T06:06:16.034Z,982.72
2019-03-12T06:07:16.027Z,982.76
2019-03-12T06:08:16.156Z,982.65
2019-03-12T06:09:15.996Z,982.71
2019-03-12T06:10:15.994Z,982.71
2019-03-12T06:11:15.982Z,982.63
2019-03-12T06:12:15.986Z,982.79
2019-03-12T06:13:15.975Z,982.80
2019-03-12T06:14:15.948Z,982.72
2019-03-12T06:15:16.183Z,982.77
2019-03-12T06:16:15.928Z,982.73
2019-03-12T06:17:15.910Z,982.75
2019-03-12T06:18:15.914Z,982.79
2019-03-12T06:19:15.891Z,982.80
2019-03-12T06:20:15.884Z,982.82
2019-03-12T06:21:15.924Z,982.76
2019-03-12T06:22:15.864Z,982.81
2019-03-12T06:23:15.919Z,982.80
2019-03-12T06:24:15.841Z,982.82
2019-03-12T06:25:15.849Z,982.86
2019-03-12T06:26:15.831Z,982.88
2019-03-12T06:27:18.132Z,982.83
2019-03-12T06:28:15.855Z,982.91
2019-03-12T06:29:16.767Z,982.88
2019-03-12T06:30:15.911Z,982.87
2019-03-12T06:31:15.853Z,982.98
2019-03-12T06:32:15.780Z,982.91
2019-03-12T06:33:15.777Z,982.90
2019-03-12T06:34:15.733Z,982.90
2019-03-12T06:35:15.728Z,982.92
2019-03-12T06:36:15.760Z,982.97
2019-03-12T06:37:15.699Z,982.91
2019-03-12T06:38:15.711Z,982.92
2019-03-12T06:39:15.690Z,982.98
2019-03-12T06:40:15.667Z,982.87
2019-03-12T06:41:15.654Z,982.88
2019-03-12T06:42:15.642Z,982.90
2019-03-12T06:43:15.758Z,982.91
2019-03-12T06:44:15.695Z,982.92
2019-03-12T06:45:15.609Z,982.97
2019-03-12T06:46:15.598Z,982.95
2019-03-12T06:47:15.590Z,982.96
2019-03-12T06:48:15.572Z,983.03
2019-03-12T06:49:15.581Z,983.00
2019-03-12T06:50:15.603Z,982.96
2019-03-12T06:51:15.572Z,982.93
2019-03-12T06:52:15.538Z,983.01
2019-03-12T06:53:15.538Z,982.99
2019-03-12T06:54:15.524Z,982.99
2019-03-12T06:55:15.517Z,982.86
2019-03-12T06:56:15.520Z,982.90
2019-03-12T06:57:15.593Z,982.91
2019-03-12T06:58:15.465Z,982.95
2019-03-12T06:59:15.480Z,982.95
2019-03-12T07:00:15.445Z,982.94
2019-03-12T07:01:15.447Z,982.95
2019-03-12T07:02:15.450Z,982.89
2019-03-12T07:03:15.418Z,982.84
2019-03-12T07:04:15.419Z,982.96
2019-03-12T07:05:15.392Z,982.88
2019-03-12T07:06:15.381Z,982.84
2019-03-12T07:07:17.113Z,982.87
2019-03-12T07:08:15.368Z,982.83
2019-03-12T07:09:15.367Z,982.92
2019-03-12T07:10:15.347Z,982.91
2019-03-12T07:11:15.334Z,982.84
2019-03-12T07:12:15.339Z,982.93
2019-03-12T07:13:15.315Z,982.91
2019-03-12T07:14:15.297Z,982.94
2019-03-12T07:15:15.282Z,982.90
2019-03-12T07:16:15.279Z,982.93
2019-03-12T07:17:15.265Z,982.93
2019-03-12T07:18:15.259Z,982.97
2019-03-12T07:19:15.271Z,982.91
2019-03-12T07:20:15.255Z,982.93
2019-03-12T07:21:15.230Z,982.94
2019-03-12T07:22:15.241Z,982.95
2019-03-12T07:23:15.195Z,982.96
2019-03-12T07:24:15.199Z,982.90
2019-03-12T07:25:15.178Z,982.98
2019-03-12T07:26:15.171Z,982.95
2019-03-12T07:27:15.168Z,982.91
2019-03-12T07:28:15.149Z,982.95
2019-03-12T07:29:15.175Z,982.91
2019-03-12T07:30:15.133Z,982.93
2019-03-12T07:31:15.260Z,982.99
2019-03-12T07:32:15.101Z,982.92
2019-03-12T07:33:15.089Z,982.97
2019-03-12T07:34:18.212Z,982.89
2019-03-12T07:35:15.077Z,982.91
2019-03-12T07:36:15.067Z,982.93
2019-03-12T07:37:15.050Z,982.92
2019-03-12T07:38:15.044Z,982.96
2019-03-12T07:39:15.038Z,982.92
2019-03-12T07:40:15.016Z,982.93
2019-03-12T07:41:25.246Z,982.93
2019-03-12T07:42:16.008Z,982.94
2019-03-12T07:43:14.989Z,982.97
2019-03-12T07:44:14.989Z,982.93
2019-03-12T07:45:14.982Z,982.91
2019-03-12T07:46:14.952Z,982.93
2019-03-12T07:47:14.942Z,982.91
2019-03-12T07:48:14.971Z,982.91
2019-03-12T07:49:14.916Z,982.90
2019-03-12T07:50:14.916Z,982.87
2019-03-12T07:51:14.899Z,982.85
2019-03-12T07:52:14.896Z,982.88
2019-03-12T07:53:14.898Z,982.88
2019-03-12T07:54:14.865Z,982.94
2019-03-12T07:55:14.860Z,982.87
2019-03-12T07:56:14.918Z,982.89
2019-03-12T07:57:14.837Z,982.95
2019-03-12T07:58:14.824Z,982.91
2019-03-12T07:59:14.848Z,982.90
2019-03-12T08:00:14.816Z,982.87
2019-03-12T08:01:14.797Z,982.85
2019-03-12T08:02:14.782Z,982.86
2019-03-12T08:03:14.799Z,982.88
2019-03-12T08:04:14.755Z,982.86
2019-03-12T08:05:14.770Z,982.84
2019-03-12T08:06:14.735Z,982.85
2019-03-12T08:07:14.722Z,982.90
2019-03-12T08:08:14.714Z,982.84
2019-03-12T08:09:14.708Z,982.87
2019-03-12T08:10:14.882Z,982.87
2019-03-12T08:11:14.695Z,982.76
2019-03-12T08:12:14.676Z,982.85
2019-03-12T08:13:14.669Z,982.88
2019-03-12T08:14:14.654Z,982.80
2019-03-12T08:15:23.135Z,982.82
2019-03-12T08:16:15.636Z,982.80
2019-03-12T08:17:14.620Z,982.79
2019-03-12T08:18:14.614Z,982.77
2019-03-12T08:19:14.595Z,982.78
2019-03-12T08:20:14.601Z,982.76
2019-03-12T08:21:22.193Z,982.72
2019-03-12T08:22:15.575Z,982.77
2019-03-12T08:23:14.555Z,982.77
2019-03-12T08:24:14.561Z,982.72
2019-03-12T08:25:14.573Z,982.67
2019-03-12T08:26:14.522Z,982.66
2019-03-12T08:27:14.518Z,982.68
2019-03-12T08:28:14.514Z,982.66
2019-03-12T08:29:14.489Z,982.66
2019-03-12T08:30:14.483Z,982.61
2019-03-12T08:31:14.476Z,982.61
2019-03-12T08:32:14.532Z,982.60
2019-03-12T08:33:14.446Z,982.48
2019-03-12T08:34:14.442Z,982.55
2019-03-12T08:35:14.428Z,982.52
2019-03-12T08:36:14.424Z,982.49
2019-03-12T08:37:14.402Z,982.49
2019-03-12T08:38:14.406Z,982.50
2019-03-12T08:39:14.523Z,982.45
2019-03-12T08:40:14.454Z,982.43
2019-03-12T08:41:14.398Z,982.42
2019-03-12T08:42:14.425Z,982.35
2019-03-12T08:43:14.340Z,982.42
2019-03-12T08:44:14.338Z,982.41
2019-03-12T08:45:15.314Z,982.41
2019-03-12T08:46:14.311Z,982.53
2019-03-12T08:47:14.301Z,982.48
2019-03-12T08:48:14.285Z,982.48
2019-03-12T08:49:14.277Z,982.34
2019-03-12T08:50:14.263Z,982.42
2019-03-12T08:51:14.263Z,982.42
2019-03-12T08:52:14.253Z,982.47
2019-03-12T08:53:14.232Z,982.35
2019-03-12T08:54:14.217Z,982.43
2019-03-12T08:55:14.208Z,982.41
2019-03-12T08:56:14.210Z,982.33
2019-03-12T08:57:14.186Z,982.29
2019-03-12T08:58:14.174Z,982.27
2019-03-12T08:59:14.164Z,982.34
2019-03-12T09:00:14.158Z,982.25
2019-03-12T09:01:14.289Z,982.25
2019-03-12T09:02:14.139Z,982.16
2019-03-12T09:03:14.124Z,982.23
2019-03-12T09:04:14.114Z,982.20
2019-03-12T09:05:14.103Z,982.15
2019-03-12T09:06:14.101Z,982.09
2019-03-12T09:07:14.087Z,982.07
2019-03-12T09:08:14.073Z,982.11
2019-03-12T09:09:14.060Z,982.07
2019-03-12T09:10:14.052Z,982.10
2019-03-12T09:11:14.046Z,982.13
2019-03-12T09:12:14.024Z,982.04
2019-03-12T09:13:14.010Z,981.91
2019-03-12T09:14:14.011Z,981.99
2019-03-12T09:15:13.994Z,981.98
2019-03-12T09:16:14.011Z,981.99
2019-03-12T09:17:13.973Z,981.98
2019-03-12T09:18:13.962Z,982.01
2019-03-12T09:19:13.946Z,981.94
2019-03-12T09:20:13.942Z,981.92
2019-03-12T09:21:13.941Z,981.85
2019-03-12T09:22:13.916Z,981.80
2019-03-12T09:23:13.943Z,981.93
2019-03-12T09:24:13.926Z,981.95
2019-03-12T09:25:13.883Z,981.83
2019-03-12T09:26:13.906Z,981.80
2019-03-12T09:27:13.860Z,981.77
2019-03-12T09:28:13.863Z,981.85
2019-03-12T09:29:13.845Z,981.74
2019-03-12T09:30:13.849Z,981.76
2019-03-12T09:31:13.816Z,981.78
2019-03-12T09:32:13.811Z,981.70
2019-03-12T09:33:13.796Z,981.80
2019-03-12T09:34:13.785Z,981.76
2019-03-12T09:35:13.788Z,981.86
2019-03-12T09:36:13.770Z,981.77
2019-03-12T09:37:13.772Z,981.87
2019-03-12T09:38:13.768Z,981.82
2019-03-12T09:39:13.730Z,981.87
2019-03-12T09:40:13.720Z,981.83
2019-03-12T09:41:13.713Z,981.79
2019-03-12T09:42:13.751Z,981.82
2019-03-12T09:43:13.684Z,981.83
2019-03-12T09:44:13.679Z,981.87
2019-03-12T09:45:13.872Z,981.80
2019-03-12T09:46:13.658Z,981.79
2019-03-12T09:47:13.649Z,981.87
2019-03-12T09:48:13.630Z,981.91
2019-03-12T09:49:13.625Z,981.85
2019-03-12T09:50:13.614Z,981.71
2019-03-12T09:51:13.600Z,981.78
2019-03-12T09:52:13.618Z,981.63
2019-03-12T09:53:13.584Z,981.65
2019-03-12T09:54:13.568Z,981.69
2019-03-12T09:55:13.571Z,981.62
2019-03-12T09:56:13.549Z,981.59
2019-03-12T09:57:13.534Z,981.66
2019-03-12T09:58:13.527Z,981.59
2019-03-12T09:59:13.518Z,981.59
2019-03-12T10:00:16.611Z,981.61
2019-03-12T10:01:13.494Z,981.55
2019-03-12T10:02:13.483Z,981.59
2019-03-12T10:03:13.475Z,981.60
2019-03-12T10:04:13.496Z,981.60
2019-03-12T10:05:13.446Z,981.67
2019-03-12T10:06:13.439Z,981.60
2019-03-12T10:07:13.470Z,981.55
2019-03-12T10:08:13.419Z,981.56
2019-03-12T10:09:13.409Z,981.56
2019-03-12T10:10:13.407Z,981.55
2019-03-12T10:11:13.390Z,981.54
2019-03-12T10:12:13.387Z,981.55
2019-03-12T10:13:13.361Z,981.53
2019-03-12T10:14:13.350Z,981.50
2019-03-12T10:15:13.340Z,981.52
2019-03-12T10:16:13.333Z,981.52
2019-03-12T10:17:13.323Z,981.48
2019-03-12T10:18:13.321Z,981.48
2019-03-12T10:19:13.310Z,981.50
2019-03-12T10:20:13.281Z,981.51
2019-03-12T10:21:13.277Z,981.42
2019-03-12T10:22:13.297Z,981.44
2019-03-12T10:23:13.257Z,981.47
2019-03-12T10:24:13.239Z,981.47
2019-03-12T10:25:13.228Z,981.41
2019-03-12T10:26:13.216Z,981.47
2019-03-12T10:27:13.217Z,981.38
2019-03-12T10:28:13.197Z,981.39
2019-03-12T10:29:13.341Z,981.44
2019-03-12T10:30:13.175Z,981.36
2019-03-12T10:31:13.162Z,981.36
2019-03-12T10:32:13.160Z,981.35
2019-03-12T10:33:13.145Z,981.30
2019-03-12T10:34:13.135Z,981.40
2019-03-12T10:35:13.116Z,981.39
2019-03-12T10:36:13.224Z,981.35
2019-03-12T10:37:16.294Z,981.30
2019-03-12T10:38:13.083Z,981.28
2019-03-12T10:39:13.071Z,981.28
2019-03-12T10:40:13.058Z,981.21
2019-03-12T10:41:13.060Z,981.21
2019-03-12T10:42:13.053Z,981.23
2019-03-12T10:43:13.034Z,981.20
2019-03-12T10:44:13.020Z,981.16
2019-03-12T10:45:13.005Z,981.24
2019-03-12T10:46:12.995Z,981.16
2019-03-12T10:47:12.992Z,981.23
2019-03-12T10:48:12.980Z,981.23
2019-03-12T10:49:12.984Z,981.16
2019-03-12T10:50:13.003Z,981.21
2019-03-12T10:51:13.268Z,981.11
2019-03-12T10:52:12.971Z,981.17
2019-03-12T10:53:12.939Z,981.08
2019-03-12T10:54:12.925Z,981.06
2019-03-12T10:55:14.021Z,981.11
2019-03-12T10:56:12.902Z,981.11
2019-03-12T10:57:12.875Z,981.06
2019-03-12T10:58:12.878Z,980.99
2019-03-12T10:59:12.851Z,980.94
2019-03-12T11:00:12.835Z,980.99
2019-03-12T11:01:12.830Z,980.84
2019-03-12T11:02:12.817Z,980.83
2019-03-12T11:03:12.805Z,980.75
2019-03-12T11:04:12.800Z,980.76
2019-03-12T11:05:12.791Z,980.70
2019-03-12T11:06:12.783Z,980.73
2019-03-12T11:07:16.644Z,980.76
2019-03-12T11:08:12.750Z,980.74
2019-03-12T11:09:12.758Z,980.67
2019-03-12T11:10:12.739Z,980.72
2019-03-12T11:11:12.723Z,980.75
2019-03-12T11:12:12.704Z,980.68
2019-03-12T11:13:14.654Z,980.54
2019-03-12T11:14:12.687Z,980.47
2019-03-12T11:15:12.699Z,980.45
2019-03-12T11:16:12.687Z,980.52
2019-03-12T11:17:12.653Z,980.48
2019-03-12T11:18:12.681Z,980.48
2019-03-12T11:19:12.641Z,980.37
2019-03-12T11:20:12.620Z,980.40
2019-03-12T11:21:12.656Z,980.29
2019-03-12T11:22:12.603Z,980.31
2019-03-12T11:23:12.599Z,980.27
2019-03-12T11:24:12.575Z,980.24
2019-03-12T11:25:12.604Z,980.25
2019-03-12T11:26:12.550Z,980.24
2019-03-12T11:27:12.539Z,980.21
2019-03-12T11:28:12.531Z,980.19
2019-03-12T11:29:12.529Z,980.17
2019-03-12T11:30:12.527Z,980.18
2019-03-12T11:31:12.557Z,980.21
2019-03-12T11:32:12.487Z,980.20
2019-03-12T11:33:12.486Z,980.12
2019-03-12T11:34:12.488Z,980.16
2019-03-12T11:35:12.569Z,980.17
2019-03-12T11:36:12.493Z,980.14
2019-03-12T11:37:12.530Z,980.08
2019-03-12T11:38:12.427Z,980.06
2019-03-12T11:39:12.432Z,980.06
2019-03-12T11:40:12.401Z,980.01
2019-03-12T11:41:12.405Z,979.96
2019-03-12T11:42:12.374Z,979.93
2019-03-12T11:43:12.380Z,979.85
2019-03-12T11:44:12.360Z,979.86
2019-03-12T11:45:16.224Z,979.86
2019-03-12T11:46:13.337Z,979.72
2019-03-12T11:47:12.349Z,979.74
2019-03-12T11:48:12.309Z,979.68
2019-03-12T11:49:12.332Z,979.63
2019-03-12T11:50:12.317Z,979.64
2019-03-12T11:51:12.285Z,979.55
2019-03-12T11:52:12.270Z,979.60
2019-03-12T11:53:12.266Z,979.63
2019-03-12T11:54:12.261Z,979.57
2019-03-12T11:55:12.334Z,979.48
2019-03-12T11:56:12.241Z,979.44
2019-03-12T11:57:12.228Z,979.55
2019-03-12T11:58:12.202Z,979.44
2019-03-12T11:59:12.202Z,979.44
2019-03-12T12:00:12.189Z,979.51
2019-03-12T12:01:12.180Z,979.33
2019-03-12T12:02:12.164Z,979.43
2019-03-12T12:03:12.152Z,979.35
2019-03-12T12:04:12.148Z,979.33
2019-03-12T12:05:12.151Z,979.42
2019-03-12T12:06:12.120Z,979.30
2019-03-12T12:07:12.117Z,979.30
2019-03-12T12:08:12.096Z,979.21
2019-03-12T12:09:12.135Z,979.21
2019-03-12T12:10:12.141Z,979.15
2019-03-12T12:11:12.064Z,979.21
2019-03-12T12:12:12.051Z,979.22
2019-03-12T12:13:12.050Z,979.18
2019-03-12T12:14:12.045Z,979.16
2019-03-12T12:15:12.028Z,979.13
2019-03-12T12:16:12.014Z,979.17
2019-03-12T12:17:12.002Z,979.08
2019-03-12T12:18:11.983Z,979.18
2019-03-12T12:19:12.010Z,979.10
2019-03-12T12:20:11.977Z,979.08
2019-03-12T12:21:11.965Z,979.09
2019-03-12T12:22:11.963Z,979.01
2019-03-12T12:23:11.940Z,978.88
2019-03-12T12:24:12.725Z,978.98
2019-03-12T12:25:11.984Z,978.80
2019-03-12T12:26:11.899Z,978.71
2019-03-12T12:27:11.892Z,978.70
2019-03-12T12:28:11.882Z,978.76